Time;durP1;ratioP1;P1;durP2;ratioP2;P2;SDS_P1;SDS_P2;PMS_P1;PMS_P2;Temp;Humidity;BMP_temperature;BMP_pressure;BME280_temperature;BME280_humidity;BME280_pressure;Samples;Min_cycle;Max_cycle;Signal;HPM_P1;HPM_P2
2022/05/11 00:01:12;;;;;;;13.35;11.25;;;;;;;-139.48;100.00;61774.03;5015045;28;20052;-72
2022/05/11 00:03:57;;;;;;;13.40;10.60;;;;;;;-139.48;100.00;61774.03;5014052;28;20152;-72
2022/05/11 00:06:40;;;;;;;14.43;11.57;;;;;;;-139.48;100.00;61774.03;5014024;28;20077;-72
2022/05/11 00:09:24;;;;;;;14.15;11.57;;;;;;;-139.48;100.00;61774.03;5013846;28;20059;-72
2022/05/11 00:12:09;;;;;;;13.52;9.88;;;;;;;-139.48;100.00;61774.03;5013941;28;20052;-72
2022/05/11 00:14:53;;;;;;;16.25;11.57;;;;;;;-139.48;100.00;61774.03;5014791;28;20133;-72
2022/05/11 00:17:36;;;;;;;16.30;11.88;;;;;;;-139.48;100.00;61774.03;5013776;28;20049;-72
2022/05/11 00:20:22;;;;;;;12.70;10.20;;;;;;;-139.48;100.00;61774.03;5014500;28;20080;-72
2022/05/11 00:23:06;;;;;;;15.85;11.38;;;;;;;-139.48;100.00;61774.03;5013747;28;20104;-72
2022/05/11 00:25:50;;;;;;;11.80;10.18;;;;;;;-139.48;100.00;61774.03;5014359;28;20049;-72
2022/05/11 00:28:34;;;;;;;13.23;11.35;;;;;;;-139.48;100.00;61774.03;5014374;28;20557;-72
2022/05/11 00:31:18;;;;;;;14.35;9.77;;;;;;;-139.48;100.00;61774.03;5013565;28;20497;-72
2022/05/11 00:34:02;;;;;;;14.60;10.05;;;;;;;-139.48;100.00;61774.03;5014822;28;20072;-72
2022/05/11 00:36:46;;;;;;;12.65;9.32;;;;;;;-139.48;100.00;61774.03;5013216;28;20099;-72
2022/05/11 00:39:33;;;;;;;14.23;11.02;;;;;;;-139.48;100.00;61774.03;5014545;28;20100;-72
2022/05/11 00:42:17;;;;;;;16.45;12.07;;;;;;;-139.48;100.00;61774.03;4999547;28;20123;-72
2022/05/11 00:45:03;;;;;;;14.95;11.20;;;;;;;-139.48;100.00;61774.03;5013886;28;20052;-72
2022/05/11 00:47:51;;;;;;;14.77;11.30;;;;;;;-139.48;100.00;61774.03;5012988;28;20135;-72
2022/05/11 00:50:35;;;;;;;14.93;10.40;;;;;;;-139.48;100.00;61774.03;5013279;28;20045;-72
2022/05/11 00:53:19;;;;;;;17.42;12.23;;;;;;;-139.48;100.00;61774.03;5014060;28;20080;-72
2022/05/11 00:56:05;;;;;;;11.07;9.93;;;;;;;-139.48;100.00;61774.03;5014133;28;20048;-72
2022/05/11 00:58:52;;;;;;;11.55;9.73;;;;;;;-139.48;100.00;61774.03;4999014;28;20067;-72
2022/05/11 01:01:37;;;;;;;15.57;10.98;;;;;;;-139.48;100.00;61774.03;5012828;28;20417;-72
2022/05/11 01:04:21;;;;;;;19.45;11.63;;;;;;;-139.48;100.00;61774.03;5013111;28;20048;-72
2022/05/11 01:07:08;;;;;;;14.85;11.15;;;;;;;-139.48;100.00;61774.03;5012662;28;20052;-72
2022/05/11 01:09:52;;;;;;;11.13;10.02;;;;;;;-139.48;100.00;61774.03;5012712;28;20057;-72
2022/05/11 01:12:39;;;;;;;11.80;10.43;;;;;;;-139.48;100.00;61774.03;5013995;28;20461;-72
2022/05/11 01:15:24;;;;;;;14.50;10.88;;;;;;;-139.48;100.00;61774.03;5012893;28;20107;-72
2022/05/11 01:18:09;;;;;;;11.38;9.98;;;;;;;-139.48;100.00;61774.03;5012685;28;20045;-71
2022/05/11 01:20:53;;;;;;;15.20;10.50;;;;;;;-139.48;100.00;61774.03;5012874;28;20100;-70
2022/05/11 01:23:54;;;;;;;13.65;10.25;;;;;;;-139.48;100.00;61774.03;5013572;28;20096;-72
2022/05/11 01:26:38;;;;;;;15.55;9.77;;;;;;;-139.48;100.00;61774.03;5034841;22;20061;-71
2022/05/11 01:29:22;;;;;;;16.65;10.82;;;;;;;-139.48;100.00;61774.03;5013751;28;20045;-70
2022/05/11 01:32:07;;;;;;;11.32;10.13;;;;;;;-139.48;100.00;61774.03;5013471;28;20057;-70
2022/05/11 01:34:54;;;;;;;11.75;10.55;;;;;;;-139.48;100.00;61774.03;5013542;28;20044;-70
2022/05/11 01:37:44;;;;;;;13.57;11.10;;;;;;;-139.48;100.00;61774.03;4979089;28;20084;-70
2022/05/11 01:40:28;;;;;;;14.20;10.75;;;;;;;-139.48;100.00;61774.03;4979340;28;20045;-70
2022/05/11 01:43:22;;;;;;;16.48;11.48;;;;;;;-139.48;100.00;61774.03;4979043;28;20057;-70
2022/05/11 01:46:07;;;;;;;13.52;10.38;;;;;;;-139.48;100.00;61774.03;4992912;28;20576;-70
2022/05/11 01:48:51;;;;;;;11.75;10.10;;;;;;;-139.48;100.00;61774.03;4992725;28;20097;-70
2022/05/11 01:51:35;;;;;;;13.48;10.90;;;;;;;-139.48;100.00;61774.03;4992914;28;20101;-70
2022/05/11 01:54:19;;;;;;;13.05;10.25;;;;;;;-139.48;100.00;61774.03;4979023;28;20485;-70
2022/05/11 01:57:03;;;;;;;13.27;10.73;;;;;;;-139.48;100.00;61774.03;4993443;28;20469;-70
2022/05/11 01:59:47;;;;;;;16.17;11.35;;;;;;;-139.48;100.00;61774.03;4996452;28;20188;-70
2022/05/11 02:02:31;;;;;;;12.48;11.00;;;;;;;-139.48;100.00;61774.03;4982778;28;20053;-70
2022/05/11 02:08:18;;;;;;;13.40;10.55;;;;;;;-139.48;100.00;61774.03;4997391;28;20129;-70
2022/05/11 02:11:03;;;;;;;12.00;10.25;;;;;;;-139.48;100.00;61774.03;4997319;28;20421;-70
2022/05/11 02:13:47;;;;;;;13.32;11.20;;;;;;;-139.48;100.00;61774.03;4996532;28;20044;-70
2022/05/11 02:16:32;;;;;;;12.57;10.30;;;;;;;-139.48;100.00;61774.03;4996346;28;20135;-70
2022/05/11 02:19:16;;;;;;;19.67;10.95;;;;;;;-139.48;100.00;61774.03;4997404;28;20049;-70
2022/05/11 02:22:00;;;;;;;13.57;9.95;;;;;;;-139.48;100.00;61774.03;4982703;28;20100;-70
2022/05/11 02:24:44;;;;;;;16.77;10.70;;;;;;;-139.48;100.00;61774.03;4997361;28;20069;-70
2022/05/11 02:27:27;;;;;;;16.25;10.95;;;;;;;-139.48;100.00;61774.03;4995918;28;20053;-70
2022/05/11 02:30:16;;;;;;;11.02;9.40;;;;;;;-139.48;100.00;61774.03;4996027;28;20049;-70
2022/05/11 02:33:00;;;;;;;21.92;10.35;;;;;;;-139.48;100.00;61774.03;4982205;28;20049;-70
2022/05/11 02:35:44;;;;;;;15.70;10.30;;;;;;;-139.48;100.00;61774.03;4995776;28;20097;-70
2022/05/11 02:38:30;;;;;;;14.07;10.40;;;;;;;-139.48;100.00;61774.03;4996043;28;20502;-70
2022/05/11 02:41:14;;;;;;;17.52;9.60;;;;;;;-139.48;100.00;61774.03;4995831;28;20128;-70
2022/05/11 02:43:58;;;;;;;13.20;10.13;;;;;;;-139.48;100.00;61774.03;4996034;28;20049;-70
2022/05/11 02:46:42;;;;;;;13.63;10.45;;;;;;;-139.48;100.00;61774.03;4996883;28;20141;-70
2022/05/11 02:49:25;;;;;;;11.88;10.55;;;;;;;-139.48;100.00;61774.03;4982180;28;20559;-70
2022/05/11 02:52:09;;;;;;;16.73;10.57;;;;;;;-139.48;100.00;61774.03;4996624;28;20097;-70
2022/05/11 02:54:53;;;;;;;13.20;10.77;;;;;;;-139.48;100.00;61774.03;4997075;28;20069;-69
2022/05/11 02:57:37;;;;;;;12.50;10.45;;;;;;;-139.48;100.00;61774.03;4995813;28;20053;-70
2022/05/11 03:00:21;;;;;;;11.68;10.27;;;;;;;-139.48;100.00;61774.03;4995502;28;20590;-69
2022/05/11 03:03:05;;;;;;;12.68;9.80;;;;;;;-139.48;100.00;61774.03;4995438;28;20148;-70
2022/05/11 03:05:52;;;;;;;11.75;10.48;;;;;;;-139.48;100.00;61774.03;4995566;28;20049;-70
2022/05/11 03:08:38;;;;;;;13.65;10.27;;;;;;;-139.48;100.00;61774.03;4995447;28;20108;-70
2022/05/11 03:11:21;;;;;;;12.27;9.75;;;;;;;-139.48;100.00;61774.03;4995294;28;20120;-70
2022/05/11 03:14:05;;;;;;;11.40;9.63;;;;;;;-139.48;100.00;61774.03;4995540;28;20049;-70
2022/05/11 03:16:49;;;;;;;12.88;10.00;;;;;;;-139.48;100.00;61774.03;4995353;28;20050;-70
2022/05/11 03:19:33;;;;;;;14.02;10.00;;;;;;;-139.48;100.00;61774.03;4995185;28;20049;-70
2022/05/11 03:22:18;;;;;;;12.60;9.35;;;;;;;-139.48;100.00;61774.03;4995363;28;20077;-70
2022/05/11 03:25:04;;;;;;;11.75;10.20;;;;;;;-139.48;100.00;61774.03;4995499;28;20057;-70
2022/05/11 03:27:49;;;;;;;14.30;9.90;;;;;;;-139.48;100.00;61774.03;4995191;28;20049;-70
2022/05/11 03:30:33;;;;;;;13.98;10.05;;;;;;;-139.48;100.00;61774.03;4995146;28;20181;-70
2022/05/11 03:36:20;;;;;;;15.50;10.02;;;;;;;-139.48;100.00;61774.03;4994922;28;20053;-69
2022/05/11 03:39:04;;;;;;;14.20;9.43;;;;;;;-139.48;100.00;61774.03;4994952;28;20101;-70
2022/05/11 03:41:48;;;;;;;14.57;10.07;;;;;;;-139.48;100.00;61774.03;4996195;28;20057;-70
2022/05/11 03:44:32;;;;;;;16.45;10.50;;;;;;;-139.48;100.00;61774.03;4980930;28;20057;-71
2022/05/11 03:47:16;;;;;;;13.52;9.88;;;;;;;-139.48;100.00;61774.03;4994552;28;20137;-70
2022/05/11 03:50:00;;;;;;;12.68;9.75;;;;;;;-139.48;100.00;61774.03;4994634;28;20053;-70
2022/05/11 03:52:44;;;;;;;13.77;9.95;;;;;;;-139.48;100.00;61774.03;4980905;28;20133;-70
2022/05/11 03:55:28;;;;;;;17.20;9.85;;;;;;;-139.48;100.00;61774.03;4994667;28;20096;-69
2022/05/11 03:58:13;;;;;;;12.57;10.10;;;;;;;-139.48;100.00;61774.03;4994661;28;20049;-70
2022/05/11 04:00:57;;;;;;;13.55;10.23;;;;;;;-139.48;100.00;61774.03;4994502;28;20045;-70
2022/05/11 04:03:41;;;;;;;10.68;9.55;;;;;;;-139.48;100.00;61774.03;4995543;28;20084;-70
2022/05/11 04:06:26;;;;;;;13.20;11.40;;;;;;;-139.48;100.00;61774.03;4994274;28;20100;-70
2022/05/11 04:09:10;;;;;;;13.77;11.23;;;;;;;-139.48;100.00;61774.03;4994170;28;20065;-70
2022/05/11 04:11:53;;;;;;;13.68;10.50;;;;;;;-139.48;100.00;61774.03;4994100;28;20049;-70
2022/05/11 04:14:37;;;;;;;13.82;10.18;;;;;;;-139.48;100.00;61774.03;4995068;28;20096;-70
2022/05/11 04:17:21;;;;;;;15.73;10.23;;;;;;;-139.48;100.00;61774.03;4993950;28;20145;-70
2022/05/11 04:20:07;;;;;;;14.73;10.82;;;;;;;-139.48;100.00;61774.03;4994789;28;20056;-70
2022/05/11 04:22:51;;;;;;;12.82;10.00;;;;;;;-139.48;100.00;61774.03;4995168;28;20500;-70
2022/05/11 04:25:35;;;;;;;12.13;10.23;;;;;;;-139.48;100.00;61774.03;4979913;28;20057;-71
2022/05/11 04:28:19;;;;;;;16.58;10.88;;;;;;;-139.48;100.00;61774.03;4993826;28;20430;-70
2022/05/11 04:31:05;;;;;;;13.02;10.95;;;;;;;-139.48;100.00;61774.03;4995045;28;20484;-71
2022/05/11 04:33:50;;;;;;;12.88;9.45;;;;;;;-139.48;100.00;61774.03;4993960;28;20476;-70
2022/05/11 04:36:35;;;;;;;12.98;11.10;;;;;;;-139.48;100.00;61774.03;4994843;28;20118;-70
2022/05/11 04:39:19;;;;;;;15.13;11.40;;;;;;;-139.48;100.00;61774.03;4993804;28;20069;-71
2022/05/11 04:42:03;;;;;;;16.05;10.40;;;;;;;-139.48;100.00;61774.03;4993532;28;20057;-70
2022/05/11 04:44:47;;;;;;;17.25;12.50;;;;;;;-139.48;100.00;61774.03;4993564;28;20537;-70
2022/05/11 04:47:31;;;;;;;18.70;12.93;;;;;;;-139.48;100.00;61774.03;4994730;28;20112;-70
2022/05/11 04:50:16;;;;;;;16.73;12.88;;;;;;;-139.48;100.00;61774.03;4994037;28;20049;-70
2022/05/11 04:53:00;;;;;;;16.75;11.93;;;;;;;-139.48;100.00;61774.03;4993359;28;20445;-70
2022/05/11 04:55:45;;;;;;;19.13;12.30;;;;;;;-139.48;100.00;61774.03;4993259;28;20414;-70
2022/05/11 04:58:30;;;;;;;18.80;12.30;;;;;;;-139.48;100.00;61774.03;4993751;28;20049;-70
2022/05/11 05:01:14;;;;;;;16.50;13.00;;;;;;;-139.48;100.00;61774.03;4993569;28;20402;-71
2022/05/11 05:03:58;;;;;;;17.08;13.20;;;;;;;-139.48;100.00;61774.03;4994227;28;20130;-70
2022/05/11 05:06:42;;;;;;;15.82;11.60;;;;;;;-139.48;100.00;61774.03;4979691;28;20052;-70
2022/05/11 05:09:26;;;;;;;16.80;12.30;;;;;;;-139.48;100.00;61774.03;4993438;28;20181;-70
2022/05/11 05:12:11;;;;;;;16.50;12.52;;;;;;;-139.48;100.00;61774.03;4993399;28;20105;-70
2022/05/11 05:14:56;;;;;;;17.33;13.45;;;;;;;-139.48;100.00;61774.03;4994080;28;20053;-70
2022/05/11 05:17:40;;;;;;;21.38;13.13;;;;;;;-139.48;100.00;61774.03;4993328;28;20068;-70
2022/05/11 05:20:24;;;;;;;19.60;13.43;;;;;;;-139.48;100.00;61774.03;4993270;28;20121;-69
2022/05/11 05:23:08;;;;;;;18.90;13.75;;;;;;;-139.48;100.00;61774.03;4992987;28;20471;-69
2022/05/11 05:25:51;;;;;;;17.98;13.98;;;;;;;-139.48;100.00;61774.03;4992702;28;20133;-70
2022/05/11 05:31:39;;;;;;;17.73;13.57;;;;;;;-139.48;100.00;61774.03;4993696;28;20072;-71
2022/05/11 05:34:23;;;;;;;16.80;13.68;;;;;;;-139.48;100.00;61774.03;4993092;28;20100;-70
2022/05/11 05:37:06;;;;;;;18.85;12.95;;;;;;;-139.48;100.00;61774.03;4993809;28;20048;-70
2022/05/11 05:39:50;;;;;;;16.63;13.50;;;;;;;-139.48;100.00;61774.03;4979306;28;20509;-70
2022/05/11 05:42:34;;;;;;;16.58;12.38;;;;;;;-139.48;100.00;61774.03;4993052;28;20129;-70
2022/05/11 05:45:18;;;;;;;18.42;12.93;;;;;;;-139.48;100.00;61774.03;4992968;28;20068;-70
2022/05/11 05:48:02;;;;;;;17.85;13.18;;;;;;;-139.48;100.00;61774.03;4979025;28;20105;-70
2022/05/11 05:50:46;;;;;;;15.13;12.00;;;;;;;-139.48;100.00;61774.03;4992687;28;20568;-71
2022/05/11 05:53:30;;;;;;;14.40;11.82;;;;;;;-139.48;100.00;61774.03;4992916;28;20112;-70
2022/05/11 05:56:14;;;;;;;16.10;11.52;;;;;;;-139.48;100.00;61774.03;4993707;28;20050;-70
2022/05/11 05:59:03;;;;;;;12.68;10.88;;;;;;;-139.48;100.00;61774.03;4992835;28;20402;-70
2022/05/11 06:01:47;;;;;;;12.10;10.80;;;;;;;-139.48;100.00;61774.03;4992895;28;20054;-70
2022/05/11 06:04:31;;;;;;;11.45;10.07;;;;;;;-139.48;100.00;61774.03;4992846;28;20073;-70
2022/05/11 06:07:17;;;;;;;15.13;10.07;;;;;;;-139.48;100.00;61774.03;4993470;28;20136;-70
2022/05/11 06:10:01;;;;;;;11.57;9.45;;;;;;;-139.48;100.00;61774.03;4992551;28;20169;-70
2022/05/11 06:12:45;;;;;;;12.35;10.02;;;;;;;-139.48;100.00;61774.03;4993508;28;20052;-70
2022/05/11 06:15:29;;;;;;;14.85;10.75;;;;;;;-139.48;100.00;61774.03;4992784;28;20053;-70
2022/05/11 06:18:13;;;;;;;13.25;10.05;;;;;;;-139.48;100.00;61774.03;4992702;28;20403;-70
2022/05/11 06:20:57;;;;;;;11.40;8.38;;;;;;;-139.48;100.00;61774.03;4979286;28;20105;-70
2022/05/11 06:23:41;;;;;;;11.68;8.68;;;;;;;-139.48;100.00;61774.03;4992611;28;20418;-70
2022/05/11 06:26:25;;;;;;;11.82;8.45;;;;;;;-139.48;100.00;61774.03;4993574;28;20084;-70
2022/05/11 06:29:09;;;;;;;9.48;8.35;;;;;;;-139.48;100.00;61774.03;4978664;28;20046;-70
2022/05/11 06:31:53;;;;;;;12.85;7.93;;;;;;;-139.48;100.00;61774.03;4993316;28;20049;-70
2022/05/11 06:34:37;;;;;;;10.18;8.48;;;;;;;-139.48;100.00;61774.03;4992357;28;20097;-70
2022/05/11 06:37:22;;;;;;;14.38;8.88;;;;;;;-139.48;100.00;61774.03;4993283;28;20473;-70
2022/05/11 06:40:08;;;;;;;9.93;8.05;;;;;;;-139.48;100.00;61774.03;4992169;28;20045;-70
2022/05/11 06:42:52;;;;;;;9.77;7.43;;;;;;;-139.48;100.00;61774.03;4992576;28;20193;-70
2022/05/11 06:45:36;;;;;;;9.75;7.15;;;;;;;-139.48;100.00;61774.03;4981421;28;20109;-70
2022/05/11 06:48:21;;;;;;;9.88;7.05;;;;;;;-139.48;100.00;61774.03;4996684;28;20093;-70
2022/05/11 06:51:04;;;;;;;8.13;6.10;;;;;;;-139.48;100.00;61774.03;4995966;28;20517;-72
2022/05/11 06:59:55;;;;;;;6.70;5.90;;;;;;;-139.48;100.00;61774.03;4995862;28;20112;-70
2022/05/11 07:02:39;;;;;;;8.15;5.30;;;;;;;-139.48;100.00;61774.03;4995688;28;20105;-70
2022/05/11 07:05:23;;;;;;;12.18;5.60;;;;;;;-139.48;100.00;61774.03;4995646;28;20058;-71
2022/05/11 07:08:08;;;;;;;8.10;5.50;;;;;;;-139.48;100.00;61774.03;4996383;28;20053;-70
2022/05/11 07:13:55;;;;;;;7.15;5.78;;;;;;;-139.48;100.00;61774.03;4995361;28;20049;-70
2022/05/11 07:16:40;;;;;;;7.20;5.60;;;;;;;-139.48;100.00;61774.03;4995145;28;20088;-70
2022/05/11 07:19:25;;;;;;;11.57;5.57;;;;;;;-139.48;100.00;61774.03;4996307;28;20053;-70
2022/05/11 07:22:09;;;;;;;6.00;5.40;;;;;;;-139.48;100.00;61774.03;4995576;28;20096;-70
2022/05/11 07:24:53;;;;;;;11.50;4.80;;;;;;;-139.48;100.00;61774.03;4994970;28;20112;-71
2022/05/11 07:27:38;;;;;;;5.80;5.25;;;;;;;-139.48;100.00;61774.03;5034651;22;20057;-73
2022/05/11 07:30:26;;;;;;;9.23;5.78;;;;;;;-139.48;100.00;61774.03;5014485;28;20044;-72
2022/05/11 07:33:10;;;;;;;10.07;5.30;;;;;;;-139.48;100.00;61774.03;5014496;28;20052;-72
2022/05/11 07:35:54;;;;;;;7.82;5.40;;;;;;;-139.48;100.00;61774.03;5000702;28;20052;-73
2022/05/11 07:38:40;;;;;;;10.35;5.53;;;;;;;-139.48;100.00;61774.03;5015561;28;20056;-73
2022/05/11 07:41:24;;;;;;;6.55;5.03;;;;;;;-139.48;100.00;61774.03;5014724;28;20215;-72
2022/05/11 07:44:08;;;;;;;8.02;5.22;;;;;;;-139.48;100.00;61774.03;5015414;28;20137;-72
2022/05/11 07:46:53;;;;;;;6.03;5.03;;;;;;;-139.48;100.00;61774.03;5014361;28;20053;-72
2022/05/11 07:49:38;;;;;;;6.28;5.35;;;;;;;-139.48;100.00;61774.03;5000620;28;20489;-72
2022/05/11 07:52:22;;;;;;;8.63;4.93;;;;;;;-139.48;100.00;61774.03;5000287;28;20426;-72
2022/05/11 07:55:07;;;;;;;11.63;5.22;;;;;;;-139.48;100.00;61774.03;5013848;28;20464;-72
2022/05/11 08:00:53;;;;;;;8.60;5.47;;;;;;;-139.48;100.00;61774.03;5014268;28;20056;-73
2022/05/11 08:03:37;;;;;;;;;;;;;;;-139.48;100.00;61774.03;5014567;28;20056;-73
2022/05/11 08:06:21;;;;;;;7.70;5.53;;;;;;;-139.48;100.00;61774.03;5014152;28;20395;-72
2022/05/11 08:09:05;;;;;;;;;;;;;;;-139.48;100.00;61774.03;5015131;28;20096;-72
2022/05/11 08:11:50;;;;;;;10.98;5.38;;;;;;;-139.48;100.00;61774.03;5013983;28;19936;-72
2022/05/11 08:14:34;;;;;;;8.27;5.38;;;;;;;-139.48;100.00;61774.03;5013921;28;20096;-73
2022/05/11 08:17:25;;;;;;;10.50;5.10;;;;;;;-139.48;100.00;61774.03;5013555;28;20052;-73
2022/05/11 08:20:20;;;;;;;8.75;5.10;;;;;;;-139.48;100.00;61774.03;5013516;28;20100;-73
2022/05/11 08:23:04;;;;;;;6.43;5.60;;;;;;;-139.48;100.00;61774.03;5013817;28;20044;-73
2022/05/11 08:25:51;;;;;;;7.90;5.75;;;;;;;-139.48;100.00;61774.03;5013373;28;20417;-72
2022/05/11 08:28:35;;;;;;;9.18;5.60;;;;;;;-139.48;100.00;61774.03;5013965;28;20099;-73
2022/05/11 08:34:22;;;;;;;9.95;5.38;;;;;;;-139.48;100.00;61774.03;5014302;28;20465;-73
2022/05/11 08:37:06;;;;;;;6.93;5.55;;;;;;;-139.48;100.00;61774.03;5013489;28;20080;-73
2022/05/11 08:39:50;;;;;;;5.85;5.25;;;;;;;-139.48;100.00;61774.03;5013563;28;20053;-72
2022/05/11 08:42:34;;;;;;;5.60;5.10;;;;;;;-139.48;100.00;61774.03;5013176;28;20052;-73
2022/05/11 08:45:18;;;;;;;7.40;5.32;;;;;;;-139.48;100.00;61774.03;5014366;28;20048;-73
2022/05/11 08:48:06;;;;;;;8.32;5.43;;;;;;;-139.48;100.00;61774.03;5013368;28;20053;-72
2022/05/11 08:50:50;;;;;;;5.78;5.18;;;;;;;-139.48;100.00;61774.03;5013580;28;20516;-73
2022/05/11 08:53:41;;;;;;;8.20;5.60;;;;;;;-139.48;100.00;61774.03;5013996;28;20130;-72
2022/05/11 08:56:27;;;;;;;13.00;6.00;;;;;;;-139.48;100.00;61774.03;5013155;28;20052;-73
2022/05/11 08:59:16;;;;;;;8.27;5.30;;;;;;;-139.48;100.00;61774.03;5012870;28;20045;-72
2022/05/11 09:02:16;;;;;;;8.57;5.60;;;;;;;-139.48;100.00;61774.03;5013212;28;20414;-73
2022/05/11 09:05:02;;;;;;;10.88;6.13;;;;;;;-139.48;100.00;61774.03;5014089;28;20134;-72
2022/05/11 09:07:52;;;;;;;8.98;5.22;;;;;;;-139.48;100.00;61774.03;5011955;28;20096;-73
2022/05/11 09:10:38;;;;;;;6.80;5.40;;;;;;;-139.48;100.00;61774.03;5013001;28;20135;-73
2022/05/11 09:13:23;;;;;;;11.20;5.15;;;;;;;-139.48;100.00;61774.03;5013221;28;20053;-73
2022/05/11 09:16:25;;;;;;;7.75;5.50;;;;;;;-139.48;100.00;61774.03;5012787;28;20050;-73
2022/05/11 09:19:23;;;;;;;7.47;5.70;;;;;;;-139.48;100.00;61774.03;5013034;28;20048;-72
2022/05/11 09:22:12;;;;;;;6.70;5.38;;;;;;;-139.48;100.00;61774.03;4999310;28;20044;-74
2022/05/11 09:24:59;;;;;;;6.63;5.32;;;;;;;-139.48;100.00;61774.03;5012846;28;20056;-73
2022/05/11 09:27:43;;;;;;;6.43;4.80;;;;;;;-139.48;100.00;61774.03;5012410;28;20053;-73
2022/05/11 09:30:30;;;;;;;8.68;5.25;;;;;;;-139.48;100.00;61774.03;4998800;28;20041;-73
2022/05/11 09:33:24;;;;;;;10.00;5.20;;;;;;;-139.48;100.00;61774.03;5012812;28;20180;-73
2022/05/11 09:36:10;;;;;;;9.73;5.60;;;;;;;-139.48;100.00;61774.03;5013673;28;20410;-73
2022/05/11 09:39:21;;;;;;;8.40;5.60;;;;;;;-139.48;100.00;61774.03;5012424;28;20076;-73
2022/05/11 09:42:15;;;;;;;7.90;4.90;;;;;;;-139.48;100.00;61774.03;5012690;28;20085;-73
2022/05/11 09:45:00;;;;;;;6.88;5.13;;;;;;;-139.48;100.00;61774.03;4998612;28;20108;-73
2022/05/11 09:48:02;;;;;;;5.32;4.82;;;;;;;-139.48;100.00;61774.03;5012454;28;20084;-72
2022/05/11 09:50:48;;;;;;;11.43;5.15;;;;;;;-139.48;100.00;61774.03;5012293;28;20044;-72
2022/05/11 09:53:37;;;;;;;11.32;5.13;;;;;;;-139.48;100.00;61774.03;5013808;28;20052;-73
2022/05/11 09:56:26;;;;;;;5.75;4.75;;;;;;;-139.48;100.00;61774.03;5012127;28;20049;-73
2022/05/11 09:59:25;;;;;;;6.88;5.20;;;;;;;-139.48;100.00;61774.03;5012404;28;20509;-73
2022/05/11 10:02:17;;;;;;;6.90;5.18;;;;;;;-139.48;100.00;61774.03;5013195;28;20521;-73
2022/05/11 10:05:33;;;;;;;6.63;5.40;;;;;;;-139.48;100.00;61774.03;5012360;28;20052;-73
2022/05/11 10:08:29;;;;;;;;;;;;;;;-139.48;100.00;61774.03;4995394;28;20096;-73
2022/05/11 10:11:20;;;;;;;7.28;4.75;;;;;;;-139.48;100.00;61774.03;5012432;28;19964;-73
2022/05/11 10:23:39;;;;;;;6.40;5.00;;;;;;;-139.48;100.00;61774.03;5016197;28;20053;-73
2022/05/11 10:26:58;;;;;;;8.80;4.50;;;;;;;-139.48;100.00;61774.03;5015592;28;20112;-73
2022/05/11 10:29:57;;;;;;;7.13;5.30;;;;;;;-139.48;100.00;61774.03;5015957;28;20041;-73
2022/05/11 10:33:00;;;;;;;9.40;4.93;;;;;;;-139.48;100.00;61774.03;5015590;28;20131;-73
2022/05/11 10:36:00;;;;;;;8.27;4.45;;;;;;;-139.48;100.00;61774.03;5016778;28;20092;-73
2022/05/11 10:39:00;;;;;;;8.10;4.82;;;;;;;-139.48;100.00;61774.03;5015695;28;20100;-74
2022/05/11 10:41:52;;;;;;;5.63;5.13;;;;;;;-139.48;100.00;61774.03;5016513;28;20048;-73
2022/05/11 10:44:38;;;;;;;5.68;5.15;;;;;;;-139.48;100.00;61774.03;5015629;28;20513;-72
2022/05/11 10:47:36;;;;;;;6.70;4.97;;;;;;;-139.48;100.00;61774.03;5016359;28;20117;-73
2022/05/11 10:50:27;;;;;;;6.70;5.00;;;;;;;-139.48;100.00;61774.03;5015294;28;20402;-73
2022/05/11 10:53:41;;;;;;;7.30;5.18;;;;;;;-139.48;100.00;61774.03;5015230;28;20501;-72
2022/05/11 10:56:33;;;;;;;6.78;5.32;;;;;;;-139.48;100.00;61774.03;5015058;28;20161;-73
2022/05/11 10:59:48;;;;;;;5.57;5.07;;;;;;;-139.48;100.00;61774.03;5016078;28;20045;-73
2022/05/11 11:02:45;;;;;;;7.93;5.30;;;;;;;-139.48;100.00;61774.03;5001454;28;20094;-73
2022/05/11 11:05:47;;;;;;;7.95;5.28;;;;;;;-139.48;100.00;61774.03;5016235;28;20088;-73
2022/05/11 11:08:36;;;;;;;5.43;4.90;;;;;;;-139.48;100.00;61774.03;5016156;28;20398;-73
2022/05/11 11:11:32;;;;;;;9.00;5.25;;;;;;;-139.48;100.00;61774.03;5015053;28;20091;-72
2022/05/11 11:14:49;;;;;;;7.25;4.93;;;;;;;-139.48;100.00;61774.03;5016119;28;20060;-73
2022/05/11 11:17:34;;;;;;;5.70;5.05;;;;;;;-139.48;100.00;61774.03;5011220;28;20128;-74
2022/05/11 11:20:19;;;;;;;6.20;5.32;;;;;;;-139.48;100.00;61774.03;5014874;28;20116;-73
2022/05/11 11:23:06;;;;;;;5.07;4.57;;;;;;;-139.48;100.00;61774.03;5014880;28;20049;-73
2022/05/11 11:26:03;;;;;;;7.00;4.80;;;;;;;-139.48;100.00;61774.03;5015355;28;20049;-73
2022/05/11 11:28:56;;;;;;;6.18;5.00;;;;;;;-139.48;100.00;61774.03;5014444;28;20053;-73
2022/05/11 11:31:59;;;;;;;10.68;5.55;;;;;;;-139.48;100.00;61774.03;5015163;28;20073;-73
2022/05/11 11:34:48;;;;;;;6.20;5.03;;;;;;;-139.48;100.00;61774.03;5015633;28;20049;-73
2022/05/11 11:37:32;;;;;;;7.28;4.82;;;;;;;-139.48;100.00;61774.03;5015349;28;20052;-73
2022/05/11 11:40:16;;;;;;;5.53;4.97;;;;;;;-139.48;100.00;61774.03;5014206;28;20517;-74
2022/05/11 11:46:04;;;;;;;5.68;5.13;;;;;;;-139.48;100.00;61774.03;5014286;28;20145;-73
2022/05/11 11:49:01;;;;;;;11.73;4.65;;;;;;;-139.48;100.00;61774.03;5015153;28;20168;-72
2022/05/11 11:51:51;;;;;;;8.20;5.13;;;;;;;-139.48;100.00;61774.03;5014140;28;20119;-73
2022/05/11 11:54:38;;;;;;;5.90;4.55;;;;;;;-139.48;100.00;61774.03;5015267;28;20057;-73
2022/05/11 11:57:22;;;;;;;5.47;4.55;;;;;;;-139.48;100.00;61774.03;5015049;28;20052;-73
2022/05/11 12:00:26;;;;;;;8.23;4.60;;;;;;;-139.48;100.00;61774.03;5015058;28;20096;-73
2022/05/11 12:03:18;;;;;;;6.32;4.93;;;;;;;-139.48;100.00;61774.03;5015149;28;20049;-73
2022/05/11 12:15:30;;;;;;;8.60;5.20;;;;;;;-139.48;100.00;61774.03;5013965;28;20151;-73
2022/05/11 12:18:29;;;;;;;9.73;5.13;;;;;;;-139.48;100.00;61774.03;5013586;28;20410;-73
2022/05/11 12:21:29;;;;;;;6.38;4.80;;;;;;;-139.48;100.00;61774.03;5013726;28;20049;-73
2022/05/11 12:24:26;;;;;;;5.20;4.70;;;;;;;-139.48;100.00;61774.03;5014740;28;20397;-72
2022/05/11 12:27:32;;;;;;;6.45;4.75;;;;;;;-139.48;100.00;61774.03;5014273;28;20147;-73
2022/05/11 12:30:24;;;;;;;4.45;4.05;;;;;;;-139.48;100.00;61774.03;5013655;28;20065;-73
2022/05/11 12:33:09;;;;;;;5.00;4.60;;;;;;;-139.48;100.00;61774.03;5014566;28;20057;-73
2022/05/11 12:35:53;;;;;;;5.43;4.05;;;;;;;-139.48;100.00;61774.03;4999361;28;20156;-73
2022/05/11 12:38:39;;;;;;;5.85;4.35;;;;;;;-139.48;100.00;61774.03;5013379;28;20053;-73
2022/05/11 12:41:24;;;;;;;5.55;4.13;;;;;;;-139.48;100.00;61774.03;5013468;28;20189;-72
2022/05/11 12:44:12;;;;;;;7.25;4.05;;;;;;;-139.48;100.00;61774.03;5013415;28;20048;-73
2022/05/11 12:47:01;;;;;;;6.70;3.53;;;;;;;-139.48;100.00;61774.03;5013206;28;20048;-73
2022/05/11 12:49:47;;;;;;;5.63;3.85;;;;;;;-139.48;100.00;61774.03;5013038;28;20426;-73
2022/05/11 12:52:32;;;;;;;5.88;3.65;;;;;;;-139.48;100.00;61774.03;5013030;28;20099;-73
2022/05/11 12:55:26;;;;;;;5.90;3.25;;;;;;;-139.48;100.00;61774.03;5014200;28;20096;-73
2022/05/11 12:58:16;;;;;;;3.50;3.15;;;;;;;-139.48;100.00;61774.03;5013191;28;20100;-73
2022/05/11 13:01:02;;;;;;;5.55;3.28;;;;;;;-139.48;100.00;61774.03;5013109;28;20095;-73
2022/05/11 13:03:46;;;;;;;6.40;3.60;;;;;;;-139.48;100.00;61774.03;5013009;28;20057;-73
2022/05/11 13:06:36;;;;;;;7.40;3.63;;;;;;;-139.48;100.00;61774.03;5013864;28;20048;-73
2022/05/11 13:09:34;;;;;;;7.75;3.22;;;;;;;-139.48;100.00;61774.03;4999001;28;20048;-74
2022/05/11 13:12:19;;;;;;;4.05;3.38;;;;;;;-139.48;100.00;61774.03;5012920;28;20080;-74
2022/05/11 13:15:04;;;;;;;5.68;2.80;;;;;;;-139.48;100.00;61774.03;5012683;28;20180;-74
2022/05/11 13:17:49;;;;;;;3.75;3.20;;;;;;;-139.48;100.00;61774.03;5014094;28;20045;-73